LUF Airport (Luke Afb) Information

FAA: LUF - ICAO: KLUF

LUF Airport Location

State Arizona
County Maricopa
City Glendale
LUF Airport is 7 miles west of Glendale, AZ.
Latitude 33-32-05.8810N
Longitude 112-22-59.5185W
Elevation 1,085ft

KLUF Airport METARs

METAR KLUF 292358Z AUTO 00000KT 10SM CLR 26/M03 A2997 RMK AO2 SLP143 T02581028 10273 20210 56015 $
Altimeter 29.97"
Temperature 25.8°C (78.4°F)
Wind 0° at 0KT
Clouds Skies are clear.
Visibility 10.0mi
Time observed: 2021-11-29T23:58:00Z

LUF Airport Details

Status Operational
Activation September 1943
Ownership Military - Air Force
Usage Private
Chart PHOENIX
ATC on-site Yes
Beacon schedule N/A
Beacon color clear green

LUF Airport Contacts

Owner USAF
Owner address LUKE AFB, GLENDALE, AZ 85301
Owner phone 623-856-1110
Manager RICHARD ORTIZ
Manager address 5555 WEST THUNDERBIRD RD, GLENDALE, AZ 85306
Manager phone 602-865-5801

LUF Airport (Luke Afb) Radio Frequencies

LUF (Airport) Radio Frequencies

UNICOM N/A
Common traffic advisory frequency (CTAF) N/A